WZZ3AR LZKZ-LZIB
Flight info
| Callsign | WZZ3AR |
|---|---|
| Flight time | 0h 35m |
| Altitude | 24000 |
| Route | TAKOS A42 NIT |
| Aircraft | A20N/M-SDE1E2E3FGIJ1J4RWXY/LB1 |
Departure
| Time | 2026-05-05 15:58 |
|---|---|
| Airport | Košice International Airport (LZKZ) |
Arrival
| Time | 2026-05-05 16:34 |
|---|---|
| Airport | M. R. Štefánik Airport (LZIB) |
| Time | Latitude | Longitude | Altitude | Speed | Heading |
|---|---|---|---|---|---|
| 2026-05-05 15:37 | 48.67247 | 21.23920 | 753 ft | 0 kts | 193° |
| 2026-05-05 15:52 | 48.67241 | 21.23918 | 753 ft | 4 kts | 193° |
| 2026-05-05 15:53 | 48.67210 | 21.23916 | 753 ft | 5 kts | 164° |
| 2026-05-05 15:53 | 48.67191 | 21.23967 | 752 ft | 7 kts | 99° |
| 2026-05-05 15:53 | 48.67178 | 21.24062 | 751 ft | 8 kts | 106° |
| 2026-05-05 15:53 | 48.67172 | 21.24153 | 751 ft | 9 kts | 63° |
| 2026-05-05 15:54 | 48.67228 | 21.24185 | 750 ft | 9 kts | 18° |
| 2026-05-05 15:54 | 48.67250 | 21.24280 | 749 ft | 11 kts | 101° |
| 2026-05-05 15:54 | 48.67239 | 21.24356 | 749 ft | 5 kts | 103° |
| 2026-05-05 15:54 | 48.67220 | 21.24462 | 748 ft | 15 kts | 105° |
| 2026-05-05 15:55 | 48.67193 | 21.24631 | 745 ft | 16 kts | 103° |
| 2026-05-05 15:55 | 48.67201 | 21.24761 | 744 ft | 14 kts | 45° |
| 2026-05-05 15:55 | 48.67300 | 21.24813 | 744 ft | 15 kts | 13° |
| 2026-05-05 15:55 | 48.67403 | 21.24851 | 745 ft | 15 kts | 13° |
| 2026-05-05 15:56 | 48.67506 | 21.24889 | 746 ft | 14 kts | 13° |
| 2026-05-05 15:56 | 48.67598 | 21.24880 | 746 ft | 13 kts | 317° |
| 2026-05-05 15:56 | 48.67625 | 21.24752 | 747 ft | 12 kts | 282° |
| 2026-05-05 15:56 | 48.67641 | 21.24630 | 748 ft | 7 kts | 270° |
| 2026-05-05 15:57 | 48.67616 | 21.24574 | 749 ft | 5 kts | 194° |
| 2026-05-05 15:57 | 48.67612 | 21.24573 | 749 ft | 0 kts | 189° |
| 2026-05-05 15:57 | 48.67379 | 21.24497 | 748 ft | 71 kts | 192° |
| 2026-05-05 15:57 | 48.66677 | 21.24246 | 748 ft | 132 kts | 193° |
| 2026-05-05 15:58 | 48.65784 | 21.23933 | 1264 ft | 132 kts | 193° |
| 2026-05-05 15:58 | 48.64880 | 21.23632 | 1792 ft | 138 kts | 192° |
| 2026-05-05 15:58 | 48.63923 | 21.23335 | 2353 ft | 144 kts | 193° |
| 2026-05-05 15:58 | 48.62935 | 21.22990 | 2825 ft | 153 kts | 194° |
| 2026-05-05 15:59 | 48.61852 | 21.22593 | 3206 ft | 169 kts | 193° |
| 2026-05-05 15:59 | 48.60652 | 21.22162 | 3614 ft | 186 kts | 193° |
| 2026-05-05 15:59 | 48.59337 | 21.21700 | 4038 ft | 205 kts | 193° |
| 2026-05-05 15:59 | 48.57886 | 21.21194 | 4568 ft | 221 kts | 194° |
| 2026-05-05 16:00 | 48.56515 | 21.20303 | 5374 ft | 223 kts | 220° |
| 2026-05-05 16:00 | 48.55646 | 21.18407 | 6194 ft | 228 kts | 249° |
| 2026-05-05 16:00 | 48.55526 | 21.15949 | 6732 ft | 251 kts | 277° |
| 2026-05-05 16:00 | 48.55957 | 21.13303 | 7264 ft | 269 kts | 280° |
| 2026-05-05 16:01 | 48.56406 | 21.10515 | 7960 ft | 279 kts | 279° |
| 2026-05-05 16:01 | 48.56842 | 21.07672 | 8793 ft | 282 kts | 277° |
| 2026-05-05 16:01 | 48.57140 | 21.04775 | 9640 ft | 282 kts | 272° |
| 2026-05-05 16:01 | 48.57261 | 21.01825 | 10460 ft | 285 kts | 268° |
| 2026-05-05 16:02 | 48.57311 | 20.98776 | 10952 ft | 301 kts | 268° |
| 2026-05-05 16:02 | 48.57354 | 20.95567 | 11428 ft | 316 kts | 268° |
| 2026-05-05 16:02 | 48.57404 | 20.92222 | 12161 ft | 321 kts | 268° |
| 2026-05-05 16:02 | 48.57457 | 20.88846 | 12956 ft | 324 kts | 268° |
| 2026-05-05 16:03 | 48.57509 | 20.85440 | 13735 ft | 327 kts | 268° |
| 2026-05-05 16:03 | 48.57560 | 20.82002 | 14447 ft | 332 kts | 268° |
| 2026-05-05 16:03 | 48.57610 | 20.78547 | 15145 ft | 336 kts | 269° |
| 2026-05-05 16:03 | 48.57661 | 20.75004 | 15839 ft | 340 kts | 269° |
| 2026-05-05 16:04 | 48.57712 | 20.71426 | 16521 ft | 344 kts | 269° |
| 2026-05-05 16:04 | 48.57762 | 20.67836 | 17199 ft | 348 kts | 269° |
| 2026-05-05 16:04 | 48.57812 | 20.64160 | 17852 ft | 352 kts | 269° |
| 2026-05-05 16:04 | 48.57861 | 20.60493 | 18489 ft | 355 kts | 269° |
| 2026-05-05 16:05 | 48.57909 | 20.56744 | 19125 ft | 358 kts | 269° |
| 2026-05-05 16:05 | 48.57957 | 20.52998 | 19754 ft | 361 kts | 270° |
| 2026-05-05 16:05 | 48.58003 | 20.49245 | 20372 ft | 364 kts | 270° |
| 2026-05-05 16:05 | 48.58049 | 20.45412 | 20996 ft | 367 kts | 270° |
| 2026-05-05 16:06 | 48.58093 | 20.41556 | 21617 ft | 369 kts | 270° |
| 2026-05-05 16:06 | 48.58135 | 20.37720 | 22219 ft | 372 kts | 270° |
| 2026-05-05 16:06 | 48.58178 | 20.33819 | 22819 ft | 374 kts | 269° |
| 2026-05-05 16:06 | 48.58188 | 20.29880 | 23417 ft | 377 kts | 267° |
| 2026-05-05 16:07 | 48.58051 | 20.25910 | 23854 ft | 379 kts | 264° |
| 2026-05-05 16:07 | 48.57753 | 20.21987 | 23942 ft | 379 kts | 261° |
| 2026-05-05 16:07 | 48.57340 | 20.18070 | 23946 ft | 378 kts | 260° |
| 2026-05-05 16:07 | 48.56914 | 20.14159 | 23948 ft | 378 kts | 259° |
| 2026-05-05 16:08 | 48.56488 | 20.10258 | 23949 ft | 377 kts | 259° |
| 2026-05-05 16:08 | 48.56062 | 20.06373 | 23950 ft | 377 kts | 259° |
| 2026-05-05 16:08 | 48.55638 | 20.02501 | 23952 ft | 377 kts | 259° |
| 2026-05-05 16:08 | 48.55209 | 19.98584 | 23953 ft | 377 kts | 259° |
| 2026-05-05 16:09 | 48.54780 | 19.94691 | 23952 ft | 377 kts | 259° |
| 2026-05-05 16:09 | 48.54352 | 19.90814 | 23952 ft | 377 kts | 259° |
| 2026-05-05 16:09 | 48.53921 | 19.86927 | 23953 ft | 378 kts | 259° |
| 2026-05-05 16:09 | 48.53488 | 19.83026 | 23950 ft | 378 kts | 259° |
| 2026-05-05 16:10 | 48.53055 | 19.79129 | 23950 ft | 378 kts | 260° |
| 2026-05-05 16:10 | 48.52620 | 19.75237 | 23950 ft | 378 kts | 260° |
| 2026-05-05 16:10 | 48.52183 | 19.71333 | 23949 ft | 379 kts | 260° |
| 2026-05-05 16:10 | 48.51741 | 19.67401 | 23947 ft | 379 kts | 260° |
| 2026-05-05 16:11 | 48.51304 | 19.63525 | 23942 ft | 379 kts | 260° |
| 2026-05-05 16:11 | 48.49976 | 19.51803 | 23937 ft | 379 kts | 260° |
| 2026-05-05 16:12 | 48.49533 | 19.47908 | 23930 ft | 379 kts | 260° |
| 2026-05-05 16:12 | 48.48642 | 19.40110 | 23927 ft | 379 kts | 259° |
| 2026-05-05 16:13 | 48.47294 | 19.28425 | 23255 ft | 375 kts | 259° |
| 2026-05-05 16:13 | 48.46851 | 19.24609 | 22973 ft | 374 kts | 259° |
| 2026-05-05 16:13 | 48.46402 | 19.20757 | 22608 ft | 372 kts | 259° |
| 2026-05-05 16:14 | 48.45518 | 19.13195 | 21807 ft | 367 kts | 259° |
| 2026-05-05 16:14 | 48.44466 | 19.05726 | 20969 ft | 362 kts | 256° |
| 2026-05-05 16:15 | 48.43377 | 18.98415 | 20144 ft | 356 kts | 256° |
| 2026-05-05 16:15 | 48.42306 | 18.91246 | 19348 ft | 351 kts | 256° |
| 2026-05-05 16:16 | 48.41245 | 18.84174 | 18536 ft | 346 kts | 256° |
| 2026-05-05 16:16 | 48.40187 | 18.77150 | 17715 ft | 341 kts | 256° |
| 2026-05-05 16:17 | 48.39151 | 18.70290 | 16910 ft | 336 kts | 256° |
| 2026-05-05 16:17 | 48.38636 | 18.66895 | 16503 ft | 334 kts | 255° |
| 2026-05-05 16:18 | 48.37610 | 18.60166 | 15694 ft | 330 kts | 255° |
| 2026-05-05 16:18 | 48.37097 | 18.56815 | 15291 ft | 328 kts | 255° |
| 2026-05-05 16:18 | 48.36082 | 18.50195 | 14488 ft | 324 kts | 254° |
| 2026-05-05 16:19 | 48.35582 | 18.46928 | 14081 ft | 322 kts | 254° |
| 2026-05-05 16:19 | 48.35081 | 18.43668 | 13674 ft | 320 kts | 254° |
| 2026-05-05 16:19 | 48.34084 | 18.37205 | 12860 ft | 317 kts | 253° |
| 2026-05-05 16:20 | 48.33091 | 18.30802 | 12066 ft | 314 kts | 253° |
| 2026-05-05 16:20 | 48.32106 | 18.24462 | 11261 ft | 310 kts | 252° |
| 2026-05-05 16:21 | 48.31131 | 18.18217 | 10473 ft | 307 kts | 252° |
| 2026-05-05 16:22 | 48.29723 | 18.09212 | 9878 ft | 279 kts | 252° |
| 2026-05-05 16:22 | 48.29166 | 18.03540 | 9298 ft | 277 kts | 263° |
| 2026-05-05 16:23 | 48.29350 | 17.97752 | 8595 ft | 277 kts | 268° |
| 2026-05-05 16:23 | 48.29476 | 17.94912 | 8276 ft | 275 kts | 267° |
| 2026-05-05 16:23 | 48.29718 | 17.89244 | 7622 ft | 271 kts | 267° |
| 2026-05-05 16:24 | 48.29835 | 17.86438 | 7285 ft | 270 kts | 267° |
| 2026-05-05 16:24 | 48.29951 | 17.83646 | 6953 ft | 268 kts | 267° |
| 2026-05-05 16:24 | 48.30176 | 17.78094 | 6313 ft | 264 kts | 266° |
| 2026-05-05 16:25 | 48.30284 | 17.75373 | 5997 ft | 263 kts | 266° |
| 2026-05-05 16:25 | 48.30500 | 17.69933 | 5387 ft | 259 kts | 266° |
| 2026-05-05 16:25 | 48.30605 | 17.67260 | 5078 ft | 258 kts | 266° |
| 2026-05-05 16:26 | 48.30811 | 17.61932 | 4447 ft | 255 kts | 266° |
| 2026-05-05 16:26 | 48.31015 | 17.56612 | 3832 ft | 253 kts | 266° |
| 2026-05-05 16:27 | 48.31115 | 17.54053 | 3740 ft | 241 kts | 265° |
| 2026-05-05 16:27 | 48.31214 | 17.51611 | 3726 ft | 226 kts | 265° |
| 2026-05-05 16:27 | 48.31302 | 17.49288 | 3692 ft | 220 kts | 264° |
| 2026-05-05 16:27 | 48.31387 | 17.47060 | 3660 ft | 207 kts | 264° |
| 2026-05-05 16:28 | 48.31467 | 17.44932 | 3610 ft | 203 kts | 263° |
| 2026-05-05 16:28 | 48.31430 | 17.42849 | 3455 ft | 192 kts | 243° |
| 2026-05-05 16:28 | 48.30804 | 17.41256 | 3410 ft | 168 kts | 223° |
| 2026-05-05 16:28 | 48.30046 | 17.40029 | 3274 ft | 154 kts | 219° |
| 2026-05-05 16:29 | 48.29300 | 17.38921 | 3043 ft | 148 kts | 218° |
| 2026-05-05 16:29 | 48.28575 | 17.37868 | 2844 ft | 140 kts | 217° |
| 2026-05-05 16:29 | 48.27907 | 17.36906 | 2693 ft | 129 kts | 217° |
| 2026-05-05 16:29 | 48.27259 | 17.35978 | 2701 ft | 128 kts | 215° |
| 2026-05-05 16:30 | 48.26612 | 17.35057 | 2678 ft | 129 kts | 216° |
| 2026-05-05 16:30 | 48.25971 | 17.34141 | 2518 ft | 128 kts | 215° |
| 2026-05-05 16:30 | 48.25330 | 17.33221 | 2352 ft | 127 kts | 216° |
| 2026-05-05 16:30 | 48.24691 | 17.32305 | 2190 ft | 127 kts | 215° |
| 2026-05-05 16:31 | 48.24049 | 17.31385 | 2026 ft | 127 kts | 216° |
| 2026-05-05 16:31 | 48.23417 | 17.30475 | 1868 ft | 126 kts | 215° |
| 2026-05-05 16:31 | 48.22783 | 17.29565 | 1704 ft | 126 kts | 215° |
| 2026-05-05 16:31 | 48.22154 | 17.28658 | 1540 ft | 125 kts | 215° |
| 2026-05-05 16:32 | 48.21528 | 17.27761 | 1374 ft | 125 kts | 216° |
| 2026-05-05 16:32 | 48.20899 | 17.26856 | 1218 ft | 125 kts | 216° |
| 2026-05-05 16:32 | 48.20272 | 17.25956 | 1048 ft | 125 kts | 217° |
| 2026-05-05 16:32 | 48.19652 | 17.25064 | 898 ft | 124 kts | 216° |
| 2026-05-05 16:33 | 48.19022 | 17.24172 | 722 ft | 124 kts | 218° |
| 2026-05-05 16:33 | 48.18407 | 17.23284 | 550 ft | 122 kts | 217° |
| 2026-05-05 16:33 | 48.17799 | 17.22412 | 432 ft | 118 kts | 217° |
| 2026-05-05 16:33 | 48.17278 | 17.21697 | 428 ft | 77 kts | 223° |
| 2026-05-05 16:34 | 48.16997 | 17.21289 | 428 ft | 47 kts | 221° |
| 2026-05-05 16:34 | 48.16788 | 17.20984 | 428 ft | 39 kts | 224° |
| 2026-05-05 16:34 | 48.16611 | 17.20719 | 430 ft | 30 kts | 219° |
| 2026-05-05 16:34 | 48.16560 | 17.20611 | 431 ft | 8 kts | 279° |
| 2026-05-05 16:35 | 48.16581 | 17.20550 | 431 ft | 6 kts | 310° |
| 2026-05-05 16:35 | 48.16626 | 17.20486 | 431 ft | 10 kts | 316° |
| 2026-05-05 16:35 | 48.16681 | 17.20405 | 431 ft | 11 kts | 314° |
| 2026-05-05 16:35 | 48.16740 | 17.20312 | 432 ft | 12 kts | 314° |
| 2026-05-05 16:36 | 48.16806 | 17.20223 | 433 ft | 12 kts | 314° |
| 2026-05-05 16:36 | 48.16849 | 17.20136 | 435 ft | 9 kts | 277° |
| 2026-05-05 16:36 | 48.16827 | 17.20083 | 434 ft | 6 kts | 217° |
| 2026-05-05 16:36 | 48.16802 | 17.20035 | 434 ft | 4 kts | 269° |
| 2026-05-05 16:37 | 48.16822 | 17.19990 | 435 ft | 5 kts | 313° |
| 2026-05-05 16:37 | 48.16830 | 17.19977 | 435 ft | 0 kts | 313° |